sensor_id;sensor_type;location;lat;lon;timestamp;pressure;altitude;pressure_sealevel;temperature;humidity
3960;BME280;1994;48.640;8.894;2022-11-15T00:01:42;95939.13;;;9.08;90.58
3960;BME280;1994;48.640;8.894;2022-11-15T00:04:10;95932.84;;;9.04;90.52
3960;BME280;1994;48.640;8.894;2022-11-15T00:06:48;95933.63;;;9.04;90.63
3960;BME280;1994;48.640;8.894;2022-11-15T00:09:27;95923.19;;;9.11;90.06
3960;BME280;1994;48.640;8.894;2022-11-15T00:11:54;95926.78;;;9.10;90.04
3960;BME280;1994;48.640;8.894;2022-11-15T00:14:26;95923.50;;;9.14;89.79
3960;BME280;1994;48.640;8.894;2022-11-15T00:16:53;95920.50;;;9.06;89.94
3960;BME280;1994;48.640;8.894;2022-11-15T00:19:19;95927.66;;;9.04;90.20
3960;BME280;1994;48.640;8.894;2022-11-15T00:21:50;95924.66;;;9.07;89.69
3960;BME280;1994;48.640;8.894;2022-11-15T00:24:20;95930.63;;;8.96;90.09
3960;BME280;1994;48.640;8.894;2022-11-15T00:26:56;95929.50;;;8.92;90.32
3960;BME280;1994;48.640;8.894;2022-11-15T00:29:27;95920.53;;;8.83;90.75
3960;BME280;1994;48.640;8.894;2022-11-15T00:31:53;95922.66;;;8.97;90.41
3960;BME280;1994;48.640;8.894;2022-11-15T00:34:23;95920.72;;;8.93;90.24
3960;BME280;1994;48.640;8.894;2022-11-15T00:36:52;95910.22;;;8.83;90.69
3960;BME280;1994;48.640;8.894;2022-11-15T00:39:19;95908.41;;;8.95;90.46
3960;BME280;1994;48.640;8.894;2022-11-15T00:41:46;95920.72;;;8.93;89.89
3960;BME280;1994;48.640;8.894;2022-11-15T00:44:14;95913.59;;;8.72;90.96
3960;BME280;1994;48.640;8.894;2022-11-15T00:46:51;95908.88;;;8.69;91.51
3960;BME280;1994;48.640;8.894;2022-11-15T00:49:18;95901.69;;;8.71;91.61
3960;BME280;1994;48.640;8.894;2022-11-15T00:51:48;95907.31;;;8.68;91.71
3960;BME280;1994;48.640;8.894;2022-11-15T00:54:22;95900.59;;;8.67;91.91
3960;BME280;1994;48.640;8.894;2022-11-15T00:56:48;95898.56;;;8.69;91.89
3960;BME280;1994;48.640;8.894;2022-11-15T00:59:24;95905.84;;;8.72;91.57
3960;BME280;1994;48.640;8.894;2022-11-15T01:01:57;95899.00;;;8.66;91.72
3960;BME280;1994;48.640;8.894;2022-11-15T01:04:28;95902.91;;;8.68;91.30
3960;BME280;1994;48.640;8.894;2022-11-15T01:06:57;95899.56;;;8.68;91.48
3960;BME280;1994;48.640;8.894;2022-11-15T01:09:24;95896.31;;;8.61;91.45
3960;BME280;1994;48.640;8.894;2022-11-15T01:11:58;95892.03;;;8.55;91.75
3960;BME280;1994;48.640;8.894;2022-11-15T01:14:27;95890.72;;;8.41;92.24
3960;BME280;1994;48.640;8.894;2022-11-15T01:16:57;95888.25;;;8.46;92.13
3960;BME280;1994;48.640;8.894;2022-11-15T01:19:27;95878.94;;;8.45;92.30
3960;BME280;1994;48.640;8.894;2022-11-15T01:22:05;95882.50;;;8.44;92.72
3960;BME280;1994;48.640;8.894;2022-11-15T01:24:33;95877.59;;;8.42;92.98
3960;BME280;1994;48.640;8.894;2022-11-15T01:30:41;95870.28;;;8.51;92.57
3960;BME280;1994;48.640;8.894;2022-11-15T01:33:10;95875.25;;;8.52;92.47
3960;BME280;1994;48.640;8.894;2022-11-15T01:35:44;95872.28;;;8.49;92.75
3960;BME280;1994;48.640;8.894;2022-11-15T01:41:52;95870.28;;;8.51;93.13
3960;BME280;1994;48.640;8.894;2022-11-15T01:44:45;95864.81;;;8.47;93.17
3960;BME280;1994;48.640;8.894;2022-11-15T01:51:02;95869.38;;;8.57;93.05
3960;BME280;1994;48.640;8.894;2022-11-15T01:53:38;95868.72;;;8.50;93.38
3960;BME280;1994;48.640;8.894;2022-11-15T01:56:20;95860.41;;;8.48;93.45
3960;BME280;1994;48.640;8.894;2022-11-15T01:58:53;95864.00;;;8.47;93.51
3960;BME280;1994;48.640;8.894;2022-11-15T02:01:23;95865.56;;;8.48;93.81
3960;BME280;1994;48.640;8.894;2022-11-15T02:06:32;95857.28;;;8.46;93.53
3960;BME280;1994;48.640;8.894;2022-11-15T02:12:43;95841.13;;;8.39;93.56
3960;BME280;1994;48.640;8.894;2022-11-15T02:15:12;95838.19;;;8.47;93.34
3960;BME280;1994;48.640;8.894;2022-11-15T02:21:44;95841.78;;;8.46;93.03
3960;BME280;1994;48.640;8.894;2022-11-15T02:37:52;95824.91;;;8.55;92.58
3960;BME280;1994;48.640;8.894;2022-11-15T02:41:07;95816.31;;;8.49;92.85
3960;BME280;1994;48.640;8.894;2022-11-15T02:44:23;95812.69;;;8.62;92.12
3960;BME280;1994;48.640;8.894;2022-11-15T02:47:01;95811.69;;;8.63;92.03
3960;BME280;1994;48.640;8.894;2022-11-15T02:49:50;95823.56;;;8.64;92.14
3960;BME280;1994;48.640;8.894;2022-11-15T02:52:24;95820.13;;;8.58;92.19
3960;BME280;1994;48.640;8.894;2022-11-15T02:54:59;95812.13;;;8.60;92.17
3960;BME280;1994;48.640;8.894;2022-11-15T02:57:45;95809.78;;;8.58;92.10
3960;BME280;1994;48.640;8.894;2022-11-15T03:00:21;95798.34;;;8.54;92.26
3960;BME280;1994;48.640;8.894;2022-11-15T03:03:18;95790.28;;;8.51;92.36
3960;BME280;1994;48.640;8.894;2022-11-15T03:15:57;95790.63;;;8.43;93.14
3960;BME280;1994;48.640;8.894;2022-11-15T03:18:42;95776.25;;;8.47;93.04
3960;BME280;1994;48.640;8.894;2022-11-15T03:21:14;95776.25;;;8.47;93.25
3960;BME280;1994;48.640;8.894;2022-11-15T03:23:50;95783.44;;;8.45;93.50
3960;BME280;1994;48.640;8.894;2022-11-15T03:26:21;95786.25;;;8.32;93.88
3960;BME280;1994;48.640;8.894;2022-11-15T03:32:25;95780.09;;;8.33;93.51
3960;BME280;1994;48.640;8.894;2022-11-15T03:35:35;95776.50;;;8.34;93.55
3960;BME280;1994;48.640;8.894;2022-11-15T03:42:36;95776.75;;;8.21;94.16
3960;BME280;1994;48.640;8.894;2022-11-15T03:47:53;95772.69;;;8.25;94.00
3960;BME280;1994;48.640;8.894;2022-11-15T03:50:27;95769.09;;;8.26;93.62
3960;BME280;1994;48.640;8.894;2022-11-15T03:52:55;95757.78;;;8.27;93.73
3960;BME280;1994;48.640;8.894;2022-11-15T03:55:22;95758.34;;;8.29;93.70
3960;BME280;1994;48.640;8.894;2022-11-15T04:01:35;95755.19;;;8.27;93.78
3960;BME280;1994;48.640;8.894;2022-11-15T04:04:03;95755.75;;;8.06;94.08
3960;BME280;1994;48.640;8.894;2022-11-15T04:06:39;95752.28;;;8.12;94.08
3960;BME280;1994;48.640;8.894;2022-11-15T04:09:15;95749.78;;;8.17;93.64
3960;BME280;1994;48.640;8.894;2022-11-15T04:11:44;95770.78;;;7.97;94.84
3960;BME280;1994;48.640;8.894;2022-11-15T04:14:17;95764.38;;;8.00;95.24
3960;BME280;1994;48.640;8.894;2022-11-15T04:16:48;95762.03;;;8.10;94.87
3960;BME280;1994;48.640;8.894;2022-11-15T04:19:21;95748.69;;;8.13;94.65
3960;BME280;1994;48.640;8.894;2022-11-15T04:22:13;95743.19;;;8.21;94.52
3960;BME280;1994;48.640;8.894;2022-11-15T04:24:58;95755.66;;;8.24;94.71
3960;BME280;1994;48.640;8.894;2022-11-15T04:31:06;95753.09;;;8.24;94.67
3960;BME280;1994;48.640;8.894;2022-11-15T04:33:32;95743.31;;;8.26;94.53
3960;BME280;1994;48.640;8.894;2022-11-15T04:36:02;95744.88;;;8.27;94.47
3960;BME280;1994;48.640;8.894;2022-11-15T04:42:20;95751.06;;;8.14;94.67
3960;BME280;1994;48.640;8.894;2022-11-15T04:44:50;95752.72;;;8.09;95.06
3960;BME280;1994;48.640;8.894;2022-11-15T04:47:17;95736.16;;;8.28;94.08
3960;BME280;1994;48.640;8.894;2022-11-15T04:49:48;95737.72;;;8.29;93.88
3960;BME280;1994;48.640;8.894;2022-11-15T04:52:16;95740.19;;;8.24;94.48
3960;BME280;1994;48.640;8.894;2022-11-15T04:54:46;95735.56;;;8.26;94.69
3960;BME280;1994;48.640;8.894;2022-11-15T05:00:54;95731.41;;;8.36;94.21
3960;BME280;1994;48.640;8.894;2022-11-15T05:03:24;95734.22;;;8.35;94.39
3960;BME280;1994;48.640;8.894;2022-11-15T05:06:16;95729.59;;;8.37;94.26
3960;BME280;1994;48.640;8.894;2022-11-15T05:08:46;95724.44;;;8.37;94.36
3960;BME280;1994;48.640;8.894;2022-11-15T05:11:20;95720.38;;;8.41;93.72
3960;BME280;1994;48.640;8.894;2022-11-15T05:13:48;95712.88;;;8.39;93.68
3960;BME280;1994;48.640;8.894;2022-11-15T05:16:15;95721.75;;;8.32;94.19
3960;BME280;1994;48.640;8.894;2022-11-15T05:18:43;95721.22;;;8.30;94.79
3960;BME280;1994;48.640;8.894;2022-11-15T05:21:15;95717.72;;;8.36;94.70
3960;BME280;1994;48.640;8.894;2022-11-15T05:23:42;95714.13;;;8.37;94.46
3960;BME280;1994;48.640;8.894;2022-11-15T05:26:13;95721.94;;;8.42;94.39
3960;BME280;1994;48.640;8.894;2022-11-15T05:32:22;95714.69;;;8.39;94.36
3960;BME280;1994;48.640;8.894;2022-11-15T05:34:54;95709.22;;;8.24;94.73
3960;BME280;1994;48.640;8.894;2022-11-15T05:37:25;95704.72;;;8.31;94.84
3960;BME280;1994;48.640;8.894;2022-11-15T05:40:04;95711.03;;;8.12;94.55
3960;BME280;1994;48.640;8.894;2022-11-15T05:42:34;95708.34;;;8.07;94.87
3960;BME280;1994;48.640;8.894;2022-11-15T05:45:03;95705.66;;;8.02;95.02
3960;BME280;1994;48.640;8.894;2022-11-15T05:47:33;95699.81;;;7.95;94.69
3960;BME280;1994;48.640;8.894;2022-11-15T05:50:05;95697.81;;;7.97;94.64
3960;BME280;1994;48.640;8.894;2022-11-15T05:52:35;95697.91;;;7.90;94.70
3960;BME280;1994;48.640;8.894;2022-11-15T05:55:03;95705.88;;;7.89;95.04
3960;BME280;1994;48.640;8.894;2022-11-15T06:01:03;95697.91;;;8.02;94.58
3960;BME280;1994;48.640;8.894;2022-11-15T06:03:35;95698.47;;;8.04;94.77
3960;BME280;1994;48.640;8.894;2022-11-15T06:06:05;95692.06;;;8.06;95.06
3960;BME280;1994;48.640;8.894;2022-11-15T06:12:16;95696.09;;;8.02;95.06
3960;BME280;1994;48.640;8.894;2022-11-15T06:14:43;95693.88;;;7.94;94.77
3960;BME280;1994;48.640;8.894;2022-11-15T06:21:01;95703.88;;;7.79;95.25
3960;BME280;1994;48.640;8.894;2022-11-15T06:27:11;95713.75;;;7.71;95.50
3960;BME280;1994;48.640;8.894;2022-11-15T06:29:41;95708.16;;;7.74;95.40
3960;BME280;1994;48.640;8.894;2022-11-15T06:32:14;95710.38;;;7.82;95.20
3960;BME280;1994;48.640;8.894;2022-11-15T06:34:41;95704.31;;;7.88;95.41
3960;BME280;1994;48.640;8.894;2022-11-15T06:37:11;95701.84;;;7.93;95.19
3960;BME280;1994;48.640;8.894;2022-11-15T06:39:41;95707.00;;;7.93;95.49
3960;BME280;1994;48.640;8.894;2022-11-15T06:42:17;95708.13;;;7.97;94.86
3960;BME280;1994;48.640;8.894;2022-11-15T06:44:50;95711.81;;;8.01;94.31
3960;BME280;1994;48.640;8.894;2022-11-15T06:47:18;95715.38;;;8.00;93.87
3960;BME280;1994;48.640;8.894;2022-11-15T06:49:54;95720.22;;;7.96;94.20
3960;BME280;1994;48.640;8.894;2022-11-15T06:52:21;95719.78;;;7.88;94.58
3960;BME280;1994;48.640;8.894;2022-11-15T06:54:51;95723.81;;;7.84;94.91
3960;BME280;1994;48.640;8.894;2022-11-15T07:01:03;95725.81;;;8.05;94.08
3960;BME280;1994;48.640;8.894;2022-11-15T07:03:30;95730.31;;;8.21;93.53
3960;BME280;1994;48.640;8.894;2022-11-15T07:06:03;95733.63;;;8.33;92.99
3960;BME280;1994;48.640;8.894;2022-11-15T07:12:16;95725.06;;;8.44;92.37
3960;BME280;1994;48.640;8.894;2022-11-15T07:14:43;95723.72;;;8.53;92.36
3960;BME280;1994;48.640;8.894;2022-11-15T07:17:12;95719.06;;;8.66;92.54
3960;BME280;1994;48.640;8.894;2022-11-15T07:19:38;95729.09;;;8.79;92.13
3960;BME280;1994;48.640;8.894;2022-11-15T07:22:08;95722.09;;;8.91;91.45
3960;BME280;1994;48.640;8.894;2022-11-15T07:24:45;95722.41;;;8.95;91.45
3960;BME280;1994;48.640;8.894;2022-11-15T07:27:22;95709.44;;;9.23;91.57
3960;BME280;1994;48.640;8.894;2022-11-15T07:29:52;95714.19;;;9.64;89.83
3960;BME280;1994;48.640;8.894;2022-11-15T07:32:27;95723.03;;;9.84;87.61
3960;BME280;1994;48.640;8.894;2022-11-15T07:34:56;95703.56;;;10.15;86.38
3960;BME280;1994;48.640;8.894;2022-11-15T07:37:22;95694.75;;;10.16;86.04
3960;BME280;1994;48.640;8.894;2022-11-15T07:39:49;95698.53;;;10.08;86.61
3960;BME280;1994;48.640;8.894;2022-11-15T07:42:16;95699.63;;;9.96;87.33
3960;BME280;1994;48.640;8.894;2022-11-15T07:45:02;95699.81;;;10.06;87.45
3960;BME280;1994;48.640;8.894;2022-11-15T07:51:19;95704.34;;;10.37;86.84
3960;BME280;1994;48.640;8.894;2022-11-15T07:53:51;95709.06;;;10.45;86.25
3960;BME280;1994;48.640;8.894;2022-11-15T07:56:18;95705.50;;;10.72;85.50
3960;BME280;1994;48.640;8.894;2022-11-15T07:58:55;95705.38;;;10.89;84.28
3960;BME280;1994;48.640;8.894;2022-11-15T08:01:28;95698.94;;;11.18;82.83
3960;BME280;1994;48.640;8.894;2022-11-15T08:03:57;95712.31;;;11.10;82.65
3960;BME280;1994;48.640;8.894;2022-11-15T08:06:24;95701.91;;;11.31;82.16
3960;BME280;1994;48.640;8.894;2022-11-15T08:08:54;95702.78;;;11.47;81.90
3960;BME280;1994;48.640;8.894;2022-11-15T08:11:24;95704.91;;;11.50;82.17
3960;BME280;1994;48.640;8.894;2022-11-15T08:13:50;95699.59;;;11.71;80.89
3960;BME280;1994;48.640;8.894;2022-11-15T08:16:22;95696.00;;;12.29;78.90
3960;BME280;1994;48.640;8.894;2022-11-15T08:22:11;95700.44;;;13.15;75.65
3960;BME280;1994;48.640;8.894;2022-11-15T08:24:39;95705.56;;;12.80;75.12
3960;BME280;1994;48.640;8.894;2022-11-15T08:27:07;95698.59;;;13.20;74.04
3960;BME280;1994;48.640;8.894;2022-11-15T08:29:53;95694.97;;;13.16;74.04
3960;BME280;1994;48.640;8.894;2022-11-15T08:32:27;95689.00;;;13.51;72.97
3960;BME280;1994;48.640;8.894;2022-11-15T08:34:54;95692.09;;;13.63;71.63
3960;BME280;1994;48.640;8.894;2022-11-15T08:40:52;95690.69;;;14.10;70.82
3960;BME280;1994;48.640;8.894;2022-11-15T08:43:27;95690.44;;;14.12;71.13
3960;BME280;1994;48.640;8.894;2022-11-15T08:46:07;95682.22;;;13.10;74.31
3960;BME280;1994;48.640;8.894;2022-11-15T08:52:23;95665.97;;;12.63;76.09
3960;BME280;1994;48.640;8.894;2022-11-15T08:54:52;95660.06;;;12.72;76.25
3960;BME280;1994;48.640;8.894;2022-11-15T09:01:05;95665.34;;;12.16;79.42
3960;BME280;1994;48.640;8.894;2022-11-15T09:03:32;95667.84;;;12.01;79.00
3960;BME280;1994;48.640;8.894;2022-11-15T09:06:01;95670.47;;;12.06;78.57
3960;BME280;1994;48.640;8.894;2022-11-15T09:12:17;95665.28;;;12.06;80.14
3960;BME280;1994;48.640;8.894;2022-11-15T09:18:31;95670.78;;;13.26;75.93
3960;BME280;1994;48.640;8.894;2022-11-15T09:21:06;95654.09;;;13.62;73.49
3960;BME280;1994;48.640;8.894;2022-11-15T09:23:38;95658.09;;;14.28;71.01
3960;BME280;1994;48.640;8.894;2022-11-15T09:26:12;95656.94;;;15.31;67.90
3960;BME280;1994;48.640;8.894;2022-11-15T09:32:27;95651.69;;;15.64;66.14
3960;BME280;1994;48.640;8.894;2022-11-15T09:34:57;95656.34;;;14.67;68.14
3960;BME280;1994;48.640;8.894;2022-11-15T09:37:23;95648.25;;;14.05;70.61
3960;BME280;1994;48.640;8.894;2022-11-15T09:39:54;95655.09;;;13.76;71.69
3960;BME280;1994;48.640;8.894;2022-11-15T09:51:39;95650.44;;;12.83;77.06
3960;BME280;1994;48.640;8.894;2022-11-15T09:54:38;95644.25;;;12.99;77.03
3960;BME280;1994;48.640;8.894;2022-11-15T10:03:11;95631.78;;;13.21;78.05
3960;BME280;1994;48.640;8.894;2022-11-15T10:05:44;95635.66;;;13.13;77.98
3960;BME280;1994;48.640;8.894;2022-11-15T10:08:40;95636.97;;;13.01;77.62
3960;BME280;1994;48.640;8.894;2022-11-15T10:11:25;95634.91;;;13.03;78.52
3960;BME280;1994;48.640;8.894;2022-11-15T10:13:58;95628.91;;;13.02;78.37
3960;BME280;1994;48.640;8.894;2022-11-15T10:16:54;95626.56;;;12.96;77.38
3960;BME280;1994;48.640;8.894;2022-11-15T10:25:30;95618.25;;;13.09;78.19
3960;BME280;1994;48.640;8.894;2022-11-15T10:31:49;95606.81;;;13.25;78.10
3960;BME280;1994;48.640;8.894;2022-11-15T10:34:23;95609.16;;;13.26;78.49
3960;BME280;1994;48.640;8.894;2022-11-15T10:37:01;95600.28;;;13.32;78.54
3960;BME280;1994;48.640;8.894;2022-11-15T10:39:32;95599.50;;;13.27;78.80
3960;BME280;1994;48.640;8.894;2022-11-15T10:42:28;95594.81;;;12.94;79.35
3960;BME280;1994;48.640;8.894;2022-11-15T10:45:16;95584.97;;;13.01;79.89
3960;BME280;1994;48.640;8.894;2022-11-15T11:01:29;95590.66;;;12.78;83.89
3960;BME280;1994;48.640;8.894;2022-11-15T11:04:08;95588.31;;;12.86;83.77
3960;BME280;1994;48.640;8.894;2022-11-15T11:07:00;95581.56;;;12.90;83.36
3960;BME280;1994;48.640;8.894;2022-11-15T11:09:44;95579.75;;;13.01;83.33
3960;BME280;1994;48.640;8.894;2022-11-15T11:12:11;95576.66;;;12.99;83.42
3960;BME280;1994;48.640;8.894;2022-11-15T11:14:40;95573.53;;;12.97;83.87
3960;BME280;1994;48.640;8.894;2022-11-15T11:35:22;95553.75;;;12.81;84.00
3960;BME280;1994;48.640;8.894;2022-11-15T11:44:43;95530.88;;;13.13;81.69
3960;BME280;1994;48.640;8.894;2022-11-15T11:51:19;95515.78;;;13.25;81.72
3960;BME280;1994;48.640;8.894;2022-11-15T11:54:25;95509.78;;;13.29;80.95
3960;BME280;1994;48.640;8.894;2022-11-15T11:56:59;95512.06;;;13.51;80.60
3960;BME280;1994;48.640;8.894;2022-11-15T12:00:20;95504.81;;;13.33;80.20
3960;BME280;1994;48.640;8.894;2022-11-15T12:02:56;95497.00;;;13.38;79.58
3960;BME280;1994;48.640;8.894;2022-11-15T12:15:10;95498.13;;;13.07;81.53
3960;BME280;1994;48.640;8.894;2022-11-15T12:25:04;95493.44;;;13.09;82.61
3960;BME280;1994;48.640;8.894;2022-11-15T12:31:18;95488.72;;;13.26;82.05
3960;BME280;1994;48.640;8.894;2022-11-15T12:33:58;95486.59;;;13.38;80.66
3960;BME280;1994;48.640;8.894;2022-11-15T12:36:45;95477.19;;;13.52;80.22
3960;BME280;1994;48.640;8.894;2022-11-15T12:39:18;95478.72;;;13.58;80.37
3960;BME280;1994;48.640;8.894;2022-11-15T12:50:56;95466.13;;;13.75;78.88
3960;BME280;1994;48.640;8.894;2022-11-15T12:53:28;95463.09;;;13.63;80.49
3960;BME280;1994;48.640;8.894;2022-11-15T13:02:26;95462.28;;;13.62;79.87
3960;BME280;1994;48.640;8.894;2022-11-15T13:08:45;95451.38;;;13.60;78.30
3960;BME280;1994;48.640;8.894;2022-11-15T13:11:48;95444.91;;;13.53;78.61
3960;BME280;1994;48.640;8.894;2022-11-15T13:17:57;95433.00;;;13.42;79.40
3960;BME280;1994;48.640;8.894;2022-11-15T13:20:34;95427.28;;;13.40;80.37
3960;BME280;1994;48.640;8.894;2022-11-15T13:23:13;95428.00;;;13.50;79.96
3960;BME280;1994;48.640;8.894;2022-11-15T13:26:07;95422.38;;;13.33;81.49
3960;BME280;1994;48.640;8.894;2022-11-15T13:32:26;95412.66;;;13.49;81.46
3960;BME280;1994;48.640;8.894;2022-11-15T13:34:55;95403.06;;;13.44;83.24
3960;BME280;1994;48.640;8.894;2022-11-15T13:41:22;95396.06;;;13.40;83.94
3960;BME280;1994;48.640;8.894;2022-11-15T13:43:51;95390.56;;;13.46;84.61
3960;BME280;1994;48.640;8.894;2022-11-15T13:46:30;95402.09;;;13.30;85.54
3960;BME280;1994;48.640;8.894;2022-11-15T13:52:51;95379.41;;;13.41;85.66
3960;BME280;1994;48.640;8.894;2022-11-15T13:55:23;95370.06;;;13.40;85.98
3960;BME280;1994;48.640;8.894;2022-11-15T14:01:35;95363.81;;;13.79;84.77
3960;BME280;1994;48.640;8.894;2022-11-15T14:04:04;95360.94;;;13.81;84.77
3960;BME280;1994;48.640;8.894;2022-11-15T14:06:32;95356.75;;;13.85;85.03
3960;BME280;1994;48.640;8.894;2022-11-15T14:12:39;95353.25;;;13.99;84.71
3960;BME280;1994;48.640;8.894;2022-11-15T14:15:43;95355.59;;;14.01;83.89
3960;BME280;1994;48.640;8.894;2022-11-15T14:22:21;95342.69;;;13.86;85.82
3960;BME280;1994;48.640;8.894;2022-11-15T14:25:23;95332.34;;;13.76;86.15
3960;BME280;1994;48.640;8.894;2022-11-15T14:31:36;95322.56;;;13.63;86.82
3960;BME280;1994;48.640;8.894;2022-11-15T14:34:03;95317.44;;;13.53;87.07
3960;BME280;1994;48.640;8.894;2022-11-15T14:36:36;95315.38;;;13.45;87.18
3960;BME280;1994;48.640;8.894;2022-11-15T14:42:47;95302.84;;;13.57;86.87
3960;BME280;1994;48.640;8.894;2022-11-15T14:45:21;95305.97;;;13.54;85.92
3960;BME280;1994;48.640;8.894;2022-11-15T14:55:03;95307.03;;;13.53;87.52
3960;BME280;1994;48.640;8.894;2022-11-15T15:01:26;95300.97;;;13.24;87.66
3960;BME280;1994;48.640;8.894;2022-11-15T15:04:03;95306.75;;;13.11;88.64
3960;BME280;1994;48.640;8.894;2022-11-15T15:06:38;95295.00;;;13.18;88.75
3960;BME280;1994;48.640;8.894;2022-11-15T15:12:37;95292.81;;;12.87;90.49
3960;BME280;1994;48.640;8.894;2022-11-15T15:15:52;95292.25;;;13.00;89.96
3960;BME280;1994;48.640;8.894;2022-11-15T15:18:05;95290.69;;;12.99;89.63
3960;BME280;1994;48.640;8.894;2022-11-15T15:20:47;95280.31;;;12.89;89.82
3960;BME280;1994;48.640;8.894;2022-11-15T15:23:20;95279.91;;;12.67;90.83
3960;BME280;1994;48.640;8.894;2022-11-15T15:25:49;95275.69;;;12.81;89.63
3960;BME280;1994;48.640;8.894;2022-11-15T15:31:58;95263.81;;;12.65;89.94
3960;BME280;1994;48.640;8.894;2022-11-15T15:34:28;95268.44;;;12.68;89.90
3960;BME280;1994;48.640;8.894;2022-11-15T15:40:32;95266.91;;;12.67;89.78
3960;BME280;1994;48.640;8.894;2022-11-15T15:43:08;95264.81;;;12.69;89.61
3960;BME280;1994;48.640;8.894;2022-11-15T15:45:40;95254.47;;;12.64;90.09
3960;BME280;1994;48.640;8.894;2022-11-15T15:48:15;95256.50;;;12.67;89.63
3960;BME280;1994;48.640;8.894;2022-11-15T15:50:42;95246.66;;;12.64;90.26
3960;BME280;1994;48.640;8.894;2022-11-15T15:53:19;95242.22;;;12.64;89.90
3960;BME280;1994;48.640;8.894;2022-11-15T15:55:49;95243.78;;;12.65;89.97
3960;BME280;1994;48.640;8.894;2022-11-15T15:58:15;95237.81;;;12.65;90.04
3960;BME280;1994;48.640;8.894;2022-11-15T16:00:49;95233.69;;;12.64;89.58
3960;BME280;1994;48.640;8.894;2022-11-15T16:03:25;95224.03;;;12.64;89.87
3960;BME280;1994;48.640;8.894;2022-11-15T16:05:56;95216.50;;;12.63;90.05
3960;BME280;1994;48.640;8.894;2022-11-15T16:08:28;95220.69;;;12.64;90.17
3960;BME280;1994;48.640;8.894;2022-11-15T16:10:59;95213.91;;;12.63;89.82
3960;BME280;1994;48.640;8.894;2022-11-15T16:13:26;95201.97;;;12.62;90.26
3960;BME280;1994;48.640;8.894;2022-11-15T16:15:56;95202.75;;;12.62;90.11
3960;BME280;1994;48.640;8.894;2022-11-15T16:22:14;95196.81;;;12.52;90.42
3960;BME280;1994;48.640;8.894;2022-11-15T16:24:40;95193.72;;;12.50;90.61
3960;BME280;1994;48.640;8.894;2022-11-15T16:27:20;95187.22;;;12.52;90.34
3960;BME280;1994;48.640;8.894;2022-11-15T16:29:56;95193.72;;;12.50;90.41
3960;BME280;1994;48.640;8.894;2022-11-15T16:32:22;95190.06;;;12.51;90.47
3960;BME280;1994;48.640;8.894;2022-11-15T16:35:02;95185.44;;;12.48;90.34
3960;BME280;1994;48.640;8.894;2022-11-15T16:41:25;95184.94;;;12.41;90.87
3960;BME280;1994;48.640;8.894;2022-11-15T16:43:53;95189.13;;;12.37;90.66
3960;BME280;1994;48.640;8.894;2022-11-15T16:46:25;95192.75;;;12.36;90.56
3960;BME280;1994;48.640;8.894;2022-11-15T16:48:54;95189.13;;;12.37;90.25
3960;BME280;1994;48.640;8.894;2022-11-15T16:51:32;95186.78;;;12.35;90.47
3960;BME280;1994;48.640;8.894;2022-11-15T16:54:05;95190.22;;;12.21;91.26
3960;BME280;1994;48.640;8.894;2022-11-15T16:56:35;95186.03;;;12.25;90.75
3960;BME280;1994;48.640;8.894;2022-11-15T16:59:06;95187.34;;;12.22;90.79
3960;BME280;1994;48.640;8.894;2022-11-15T17:01:42;95173.66;;;12.07;91.91
3960;BME280;1994;48.640;8.894;2022-11-15T17:04:21;95184.47;;;12.24;91.07
3960;BME280;1994;48.640;8.894;2022-11-15T17:07:02;95177.31;;;11.96;92.39
3960;BME280;1994;48.640;8.894;2022-11-15T17:09:35;95172.09;;;12.06;92.07
3960;BME280;1994;48.640;8.894;2022-11-15T17:12:05;95172.09;;;12.06;92.12
3960;BME280;1994;48.640;8.894;2022-11-15T17:14:31;95165.88;;;12.02;92.62
3960;BME280;1994;48.640;8.894;2022-11-15T17:17:02;95161.22;;;11.99;92.94
3960;BME280;1994;48.640;8.894;2022-11-15T17:19:28;95174.72;;;12.01;93.02
3960;BME280;1994;48.640;8.894;2022-11-15T17:22:01;95163.03;;;12.03;92.90
3960;BME280;1994;48.640;8.894;2022-11-15T17:24:29;95159.63;;;12.03;93.26
3960;BME280;1994;48.640;8.894;2022-11-15T17:27:00;95154.44;;;12.08;94.03
3960;BME280;1994;48.640;8.894;2022-11-15T17:29:32;95147.16;;;12.15;93.94
3960;BME280;1994;48.640;8.894;2022-11-15T17:32:08;95142.97;;;12.14;93.50
3960;BME280;1994;48.640;8.894;2022-11-15T17:34:39;95149.00;;;12.04;93.44
3960;BME280;1994;48.640;8.894;2022-11-15T17:37:12;95141.41;;;12.23;93.70
3960;BME280;1994;48.640;8.894;2022-11-15T17:39:39;95141.91;;;12.25;92.80
3960;BME280;1994;48.640;8.894;2022-11-15T17:42:09;95141.88;;;12.30;93.03
3960;BME280;1994;48.640;8.894;2022-11-15T17:44:42;95146.53;;;12.33;92.99
3960;BME280;1994;48.640;8.894;2022-11-15T17:47:09;95148.69;;;12.21;92.89
3960;BME280;1994;48.640;8.894;2022-11-15T17:49:36;95141.63;;;12.26;92.79
3960;BME280;1994;48.640;8.894;2022-11-15T17:52:09;95148.66;;;12.31;92.43
3960;BME280;1994;48.640;8.894;2022-11-15T17:54:37;95144.22;;;12.31;92.34
3960;BME280;1994;48.640;8.894;2022-11-15T17:57:13;95136.69;;;12.30;91.82
3960;BME280;1994;48.640;8.894;2022-11-15T17:59:46;95139.84;;;12.22;91.75
3960;BME280;1994;48.640;8.894;2022-11-15T18:02:17;95135.69;;;12.21;91.86
3960;BME280;1994;48.640;8.894;2022-11-15T18:04:47;95128.44;;;12.18;91.61
3960;BME280;1994;48.640;8.894;2022-11-15T18:10:47;95147.97;;;12.00;92.45
3960;BME280;1994;48.640;8.894;2022-11-15T18:13:23;95138.34;;;12.06;92.25
3960;BME280;1994;48.640;8.894;2022-11-15T18:15:54;95143.88;;;11.84;93.43
3960;BME280;1994;48.640;8.894;2022-11-15T18:22:03;95141.25;;;11.89;93.35
3960;BME280;1994;48.640;8.894;2022-11-15T18:24:47;95136.84;;;11.90;93.58
3960;BME280;1994;48.640;8.894;2022-11-15T18:30:42;95139.44;;;11.95;93.21
3960;BME280;1994;48.640;8.894;2022-11-15T18:33:22;95135.78;;;11.96;93.32
3960;BME280;1994;48.640;8.894;2022-11-15T18:36:01;95129.56;;;11.92;93.53
3960;BME280;1994;48.640;8.894;2022-11-15T18:42:13;95130.13;;;11.89;93.44
3960;BME280;1994;48.640;8.894;2022-11-15T18:44:40;95123.38;;;11.88;93.34
3960;BME280;1994;48.640;8.894;2022-11-15T18:50:49;95116.09;;;11.90;93.55
3960;BME280;1994;48.640;8.894;2022-11-15T18:53:20;95097.66;;;11.96;93.15
3960;BME280;1994;48.640;8.894;2022-11-15T18:55:52;95098.97;;;11.89;93.59
3960;BME280;1994;48.640;8.894;2022-11-15T19:02:15;95080.56;;;11.90;93.86
3960;BME280;1994;48.640;8.894;2022-11-15T19:08:39;95083.94;;;11.86;94.63
3960;BME280;1994;48.640;8.894;2022-11-15T19:11:30;95075.66;;;11.84;94.22
3960;BME280;1994;48.640;8.894;2022-11-15T19:14:03;95077.75;;;11.82;94.48
3960;BME280;1994;48.640;8.894;2022-11-15T19:16:34;95073.56;;;11.86;94.46
3960;BME280;1994;48.640;8.894;2022-11-15T19:22:43;95064.00;;;11.76;94.74
3960;BME280;1994;48.640;8.894;2022-11-15T19:25:16;95055.44;;;11.76;94.79
3960;BME280;1994;48.640;8.894;2022-11-15T19:31:30;95048.22;;;11.68;95.39